Time;durP1;ratioP1;P1;durP2;ratioP2;P2;SDS_P1;SDS_P2;PMS_P1;PMS_P2;Temp;Humidity;BMP_temperature;BMP_pressure;BME280_temperature;BME280_humidity;BME280_pressure;Samples;Min_cycle;Max_cycle;Signal;HPM_P1;HPM_P2
2022/01/15 00:02:22;;;;;;;6.47;4.55;;;19.30;41.60;;;;;;5050418;28;20036;-67
2022/01/15 00:04:48;;;;;;;7.50;4.70;;;19.30;41.60;;;;;;5072140;28;20033;-67
2022/01/15 00:07:14;;;;;;;6.78;4.47;;;19.30;41.60;;;;;;5069495;28;20044;-67
2022/01/15 00:09:42;;;;;;;7.22;4.88;;;19.30;41.60;;;;;;5037726;28;20041;-67
2022/01/15 00:12:08;;;;;;;7.10;4.65;;;19.20;41.60;;;;;;5058301;28;20505;-67
2022/01/15 00:14:39;;;;;;;7.50;4.93;;;19.20;41.70;;;;;;5055314;28;20044;-67
2022/01/15 00:17:14;;;;;;;8.48;5.30;;;19.20;41.70;;;;;;5059848;28;20025;-67
2022/01/15 00:19:43;;;;;;;7.38;4.82;;;19.20;41.70;;;;;;5058781;28;20059;-67
2022/01/15 00:22:10;;;;;;;7.10;4.55;;;19.20;41.80;;;;;;5070159;28;20021;-67
2022/01/15 00:24:36;;;;;;;7.85;5.03;;;19.20;41.80;;;;;;5073184;28;20443;-67
2022/01/15 00:27:02;;;;;;;7.78;4.60;;;19.20;41.80;;;;;;5070944;28;20040;-67
2022/01/15 00:29:30;;;;;;;8.52;4.95;;;19.20;41.90;;;;;;5062281;28;20078;-67
2022/01/15 00:31:56;;;;;;;7.45;5.00;;;19.10;41.80;;;;;;5071895;28;20029;-68
2022/01/15 00:34:22;;;;;;;8.25;5.15;;;19.10;42.30;;;;;;5072259;28;20472;-67
2022/01/15 00:36:47;;;;;;;6.40;4.55;;;19.10;41.80;;;;;;5064749;28;20058;-67
2022/01/15 00:39:13;;;;;;;7.43;4.88;;;19.10;41.90;;;;;;5061690;28;20032;-70
2022/01/15 00:41:39;;;;;;;8.30;4.85;;;19.10;41.90;;;;;;5062200;28;20116;-70
2022/01/15 00:44:05;;;;;;;7.07;4.55;;;19.10;41.90;;;;;;5072943;28;20076;-69
2022/01/15 00:46:30;;;;;;;8.20;5.40;;;19.00;41.90;;;;;;5072624;28;20029;-71
2022/01/15 00:48:56;;;;;;;7.55;5.18;;;19.00;41.90;;;;;;5068954;28;20115;-71
2022/01/15 00:51:22;;;;;;;7.60;4.82;;;19.00;41.90;;;;;;5063527;28;20048;-70
2022/01/15 00:53:48;;;;;;;7.35;4.80;;;19.00;42.00;;;;;;5067312;28;20729;-71
2022/01/15 00:56:14;;;;;;;8.10;4.97;;;19.00;42.00;;;;;;5052654;28;20029;-70
2022/01/15 00:58:40;;;;;;;8.93;5.30;;;19.00;42.00;;;;;;5066382;28;20056;-70
2022/01/15 01:01:06;;;;;;;8.88;5.03;;;19.00;42.00;;;;;;5072633;28;20432;-70
2022/01/15 01:03:31;;;;;;;7.07;4.88;;;19.00;42.00;;;;;;5048242;28;20033;-70
2022/01/15 01:05:57;;;;;;;6.95;4.88;;;19.00;43.00;;;;;;5058228;28;20392;-69
2022/01/15 01:08:23;;;;;;;7.93;5.22;;;18.90;42.00;;;;;;5048454;28;20067;-71
2022/01/15 01:10:52;;;;;;;7.80;5.15;;;19.00;42.00;;;;;;5053320;28;20108;-71
2022/01/15 01:23:47;;;;;;;7.13;4.90;;;18.80;42.10;;;;;;5059297;28;20373;-67
2022/01/15 01:26:27;;;;;;;7.75;5.22;;;18.80;42.10;;;;;;5068141;28;20074;-71
2022/01/15 01:29:14;;;;;;;8.43;5.30;;;18.80;42.10;;;;;;5067059;28;20032;-67
2022/01/15 01:31:54;;;;;;;8.05;5.25;;;18.80;42.20;;;;;;5068154;28;20039;-67
2022/01/15 01:34:20;;;;;;;7.97;5.00;;;18.80;42.20;;;;;;5046347;28;20412;-67
2022/01/15 01:39:17;;;;;;;8.50;5.20;;;18.80;42.20;;;;;;5052090;28;20033;-67
2022/01/15 01:41:53;;;;;;;9.10;5.80;;;18.80;42.20;;;;;;5052814;28;20414;-67
2022/01/15 01:44:25;;;;;;;8.95;5.97;;;18.80;42.30;;;;;;5056365;28;20279;-67
2022/01/15 01:47:01;;;;;;;9.02;5.47;;;18.70;42.40;;;;;;5050190;28;20059;-67
2022/01/15 01:49:28;;;;;;;9.20;5.68;;;18.70;42.30;;;;;;5032826;28;20378;-67
2022/01/15 01:51:54;;;;;;;8.20;5.22;;;18.70;42.30;;;;;;5035365;28;20036;-67
2022/01/15 01:54:19;;;;;;;8.93;5.60;;;18.70;42.30;;;;;;5035125;28;20025;-71
2022/01/15 01:56:47;;;;;;;8.07;5.63;;;18.70;42.30;;;;;;5044432;28;20039;-67
2022/01/15 01:59:14;;;;;;;8.38;5.68;;;18.70;42.40;;;;;;5055075;28;20020;-67
2022/01/15 02:01:40;;;;;;;8.45;5.40;;;18.70;42.30;;;;;;5048757;28;20037;-67
2022/01/15 02:04:06;;;;;;;9.35;5.43;;;18.70;42.40;;;;;;5049967;28;20749;-71
2022/01/15 02:06:31;;;;;;;8.50;5.10;;;18.60;42.30;;;;;;5038294;28;20029;-71
2022/01/15 02:08:58;;;;;;;9.10;5.40;;;18.60;42.30;;;;;;5052622;28;20090;-71
2022/01/15 02:11:25;;;;;;;9.43;5.45;;;18.60;43.30;;;;;;5045213;28;20378;-71
2022/01/15 02:13:51;;;;;;;8.77;5.63;;;18.60;42.40;;;;;;5053373;28;20079;-67
2022/01/15 02:16:17;;;;;;;9.05;5.55;;;18.60;42.40;;;;;;5028613;28;20450;-67
2022/01/15 02:18:43;;;;;;;8.82;5.57;;;18.60;42.40;;;;;;5052255;28;20053;-67
2022/01/15 02:23:41;;;;;;;9.63;5.30;;;18.60;42.50;;;;;;5048903;28;20029;-67
2022/01/15 02:26:09;;;;;;;8.90;5.00;;;18.60;42.50;;;;;;5058506;28;20387;-67
2022/01/15 02:28:37;;;;;;;9.15;5.68;;;18.50;42.40;;;;;;5067357;28;20083;-67
2022/01/15 02:31:06;;;;;;;10.32;5.88;;;18.50;42.40;;;;;;5050646;28;20048;-71
2022/01/15 02:33:33;;;;;;;9.45;5.95;;;18.60;42.40;;;;;;5051607;28;20137;-71
2022/01/15 02:35:59;;;;;;;9.68;5.60;;;18.50;42.40;;;;;;5060927;28;20039;-71
2022/01/15 02:38:25;;;;;;;11.45;6.18;;;18.50;42.30;;;;;;5060233;28;20376;-71
2022/01/15 02:40:51;;;;;;;11.15;5.60;;;18.50;42.30;;;;;;5071399;28;20025;-68
2022/01/15 02:43:20;;;;;;;10.77;5.97;;;18.50;42.30;;;;;;5057056;28;20380;-71
2022/01/15 02:45:55;;;;;;;10.50;6.25;;;18.50;42.30;;;;;;5051813;28;20025;-70
2022/01/15 02:48:25;;;;;;;9.90;6.10;;;18.50;42.30;;;;;;5064876;28;20029;-70
2022/01/15 02:50:51;;;;;;;11.48;6.35;;;18.40;42.30;;;;;;5056908;28;20095;-69
2022/01/15 02:53:17;;;;;;;10.90;6.07;;;18.40;42.50;;;;;;5067469;28;20518;-71
2022/01/15 02:55:48;;;;;;;10.00;6.10;;;18.40;43.30;;;;;;5060903;28;20029;-72
2022/01/15 02:58:15;;;;;;;11.63;6.07;;;18.40;42.40;;;;;;5070597;28;20448;-71
2022/01/15 03:00:41;;;;;;;9.75;5.90;;;18.30;42.40;;;;;;5041994;28;20404;-72
2022/01/15 03:03:07;;;;;;;11.50;6.13;;;18.40;42.50;;;;;;5064650;28;20108;-71
2022/01/15 03:05:33;;;;;;;9.55;5.88;;;18.40;42.50;;;;;;5075650;28;20462;-72
2022/01/15 03:07:58;;;;;;;10.50;6.30;;;18.30;42.40;;;;;;5071672;28;20104;-71
2022/01/15 03:10:24;;;;;;;11.77;6.38;;;18.30;42.40;;;;;;5070166;28;20043;-71
2022/01/15 03:12:53;;;;;;;12.98;6.38;;;18.30;42.40;;;;;;5072837;28;20406;-71
2022/01/15 03:15:19;;;;;;;10.43;5.93;;;18.30;42.40;;;;;;5075475;28;20032;-67
2022/01/15 03:17:46;;;;;;;9.90;5.78;;;18.20;42.40;;;;;;5064368;28;20028;-67
2022/01/15 03:20:13;;;;;;;9.73;6.07;;;18.30;42.40;;;;;;5066660;28;20035;-67
2022/01/15 03:22:39;;;;;;;10.40;5.85;;;18.30;42.40;;;;;;5069418;28;20451;-71
2022/01/15 03:25:05;;;;;;;10.75;6.80;;;18.20;42.30;;;;;;5076480;28;20078;-72
2022/01/15 03:27:31;;;;;;;10.10;5.85;;;18.20;42.30;;;;;;5075318;28;20494;-72
2022/01/15 03:29:57;;;;;;;10.93;6.35;;;18.20;42.30;;;;;;5074443;28;20038;-72
2022/01/15 03:32:22;;;;;;;11.02;5.82;;;18.20;42.30;;;;;;5072896;28;20032;-72
2022/01/15 03:34:48;;;;;;;10.63;6.43;;;18.20;42.30;;;;;;5065037;28;20040;-67
2022/01/15 03:37:15;;;;;;;10.68;6.20;;;18.10;42.20;;;;;;5065941;28;20025;-68
2022/01/15 03:39:41;;;;;;;10.40;5.82;;;18.10;42.20;;;;;;5061714;28;20112;-71
2022/01/15 03:42:13;;;;;;;12.50;6.90;;;18.10;42.20;;;;;;5042087;28;20063;-71
2022/01/15 03:44:42;;;;;;;10.52;6.38;;;18.10;42.20;;;;;;5069412;28;20020;-71
2022/01/15 03:47:08;;;;;;;10.65;6.07;;;18.10;42.20;;;;;;5075202;28;20032;-71
2022/01/15 03:49:34;;;;;;;10.35;6.07;;;18.10;42.20;;;;;;5075896;28;20031;-72
2022/01/15 03:52:00;;;;;;;10.50;6.13;;;18.10;42.20;;;;;;5069581;28;20033;-72
2022/01/15 03:54:25;;;;;;;10.65;6.43;;;18.10;42.20;;;;;;5074269;28;20025;-68
2022/01/15 03:56:51;;;;;;;9.25;6.03;;;18.00;42.20;;;;;;5062182;28;20389;-67
2022/01/15 03:59:17;;;;;;;12.48;6.25;;;18.00;42.10;;;;;;5072243;28;20032;-71
2022/01/15 04:01:43;;;;;;;9.82;5.80;;;18.00;42.10;;;;;;5060546;28;20051;-72
2022/01/15 04:04:08;;;;;;;9.90;5.85;;;18.00;42.10;;;;;;5075837;28;20032;-72
2022/01/15 04:06:34;;;;;;;10.27;6.20;;;18.00;42.10;;;;;;5073828;28;20502;-71
2022/01/15 04:09:00;;;;;;;11.27;5.97;;;18.00;42.10;;;;;;5075681;28;20029;-71
2022/01/15 04:11:25;;;;;;;11.02;6.13;;;18.00;42.10;;;;;;5074036;28;20025;-71
2022/01/15 04:13:51;;;;;;;11.02;5.85;;;17.90;42.10;;;;;;5074368;28;20036;-71
2022/01/15 04:16:17;;;;;;;10.50;5.82;;;17.90;42.10;;;;;;5069779;28;20050;-71
2022/01/15 04:18:42;;;;;;;9.70;5.97;;;17.90;42.10;;;;;;5071904;28;20480;-72
2022/01/15 04:21:11;;;;;;;11.38;6.45;;;17.90;42.10;;;;;;5056283;28;20348;-72
2022/01/15 04:23:37;;;;;;;11.15;6.43;;;17.90;42.10;;;;;;5066934;28;20032;-71
2022/01/15 04:26:04;;;;;;;9.57;6.05;;;17.90;42.10;;;;;;5074645;28;20198;-71
2022/01/15 04:28:32;;;;;;;9.93;5.82;;;17.90;42.10;;;;;;5075088;28;20036;-71
2022/01/15 04:31:04;;;;;;;9.02;5.32;;;17.80;42.00;;;;;;5069695;28;20086;-72
2022/01/15 04:33:34;;;;;;;10.90;6.18;;;17.90;42.10;;;;;;5072231;28;20052;-72
2022/01/15 04:36:00;;;;;;;11.43;6.13;;;17.80;42.00;;;;;;5062613;28;20033;-72
2022/01/15 04:38:26;;;;;;;9.95;5.75;;;17.80;42.00;;;;;;5062205;28;20025;-71
2022/01/15 04:40:52;;;;;;;11.05;5.78;;;17.80;42.00;;;;;;5074282;28;20028;-72
2022/01/15 04:43:17;;;;;;;10.07;6.10;;;17.80;42.00;;;;;;5056220;28;20491;-72
2022/01/15 04:45:43;;;;;;;10.60;5.95;;;17.80;42.00;;;;;;5075303;28;20029;-71
2022/01/15 04:48:09;;;;;;;10.60;5.85;;;17.80;42.00;;;;;;5072146;28;20024;-72
2022/01/15 04:50:34;;;;;;;11.68;5.75;;;17.80;42.10;;;;;;5061933;28;20515;-72
2022/01/15 04:53:00;;;;;;;9.48;5.47;;;17.80;42.10;;;;;;5071057;28;20040;-68
2022/01/15 04:55:26;;;;;;;10.88;6.13;;;17.70;42.00;;;;;;5074551;28;20028;-68
2022/01/15 04:57:51;;;;;;;10.00;5.70;;;17.70;42.00;;;;;;5073429;28;20025;-71
2022/01/15 05:00:18;;;;;;;8.20;5.18;;;17.70;42.00;;;;;;5063385;28;20163;-71
2022/01/15 05:02:43;;;;;;;12.05;6.07;;;17.70;42.00;;;;;;5073708;28;20371;-71
2022/01/15 05:05:10;;;;;;;11.07;5.80;;;17.70;42.00;;;;;;5071639;28;20029;-71
2022/01/15 05:07:36;;;;;;;9.63;5.15;;;17.70;42.00;;;;;;5073705;28;20480;-72
2022/01/15 05:10:03;;;;;;;10.20;5.65;;;17.70;42.00;;;;;;5066851;28;20395;-67
2022/01/15 05:12:31;;;;;;;8.77;5.38;;;17.70;42.00;;;;;;5065980;28;20083;-67
2022/01/15 05:14:58;;;;;;;10.10;5.78;;;17.70;42.10;;;;;;5059152;28;20016;-67
2022/01/15 05:17:24;;;;;;;9.45;5.55;;;17.70;42.10;;;;;;5068646;28;20384;-68
2022/01/15 05:19:50;;;;;;;10.02;5.43;;;17.60;42.00;;;;;;5073234;28;20013;-72
2022/01/15 05:22:16;;;;;;;10.25;5.60;;;17.60;42.10;;;;;;5073342;28;20502;-72
2022/01/15 05:24:41;;;;;;;10.30;5.05;;;17.60;42.10;;;;;;5073358;28;20090;-72
2022/01/15 05:27:07;;;;;;;9.52;5.63;;;17.60;42.00;;;;;;5073408;28;20426;-72
2022/01/15 05:29:33;;;;;;;9.80;5.63;;;17.60;42.10;;;;;;5065206;28;20040;-71
2022/01/15 05:31:58;;;;;;;9.68;5.57;;;17.60;42.10;;;;;;5068000;28;20448;-68
2022/01/15 05:34:24;;;;;;;9.13;5.38;;;17.60;42.10;;;;;;5073266;28;20020;-68
2022/01/15 05:36:50;;;;;;;10.43;5.25;;;17.60;42.10;;;;;;5072060;28;20523;-68
2022/01/15 05:39:15;;;;;;;9.15;5.47;;;17.60;42.10;;;;;;5062146;28;20365;-67
2022/01/15 05:41:41;;;;;;;9.80;5.40;;;17.50;42.10;;;;;;5071870;28;20028;-71
2022/01/15 05:44:07;;;;;;;9.70;5.50;;;17.50;42.00;;;;;;5056154;28;20028;-71
2022/01/15 05:46:34;;;;;;;9.93;5.47;;;17.50;42.00;;;;;;5064188;28;20480;-68
2022/01/15 05:49:00;;;;;;;10.45;5.63;;;17.50;43.00;;;;;;5060605;28;20516;-67
2022/01/15 05:51:29;;;;;;;8.77;5.72;;;17.50;42.00;;;;;;5062209;28;20079;-68
2022/01/15 05:54:10;;;;;;;11.20;6.22;;;17.50;42.10;;;;;;5070770;28;20111;-67
2022/01/15 05:56:36;;;;;;;8.65;5.20;;;17.50;42.00;;;;;;5068193;28;20047;-67
2022/01/15 05:59:02;;;;;;;9.40;5.55;;;17.50;42.10;;;;;;5062402;28;20388;-67
2022/01/15 06:01:28;;;;;;;9.73;5.32;;;17.50;42.20;;;;;;5057082;28;20036;-68
2022/01/15 06:03:54;;;;;;;8.80;5.40;;;17.50;42.20;;;;;;5072633;28;20032;-67
2022/01/15 06:06:19;;;;;;;10.35;5.95;;;17.40;42.10;;;;;;5072544;28;20777;-67
2022/01/15 06:08:45;;;;;;;9.73;5.85;;;17.40;42.10;;;;;;5072486;28;20036;-68
2022/01/15 06:11:11;;;;;;;10.07;5.25;;;17.40;42.10;;;;;;5062679;28;20037;-67
2022/01/15 06:13:37;;;;;;;10.77;5.68;;;17.40;42.10;;;;;;5071752;28;20155;-67
2022/01/15 06:16:04;;;;;;;9.88;5.45;;;17.40;42.10;;;;;;5059271;28;20159;-68
2022/01/15 06:18:30;;;;;;;10.50;5.32;;;17.40;42.10;;;;;;5063599;28;20021;-68
2022/01/15 06:20:55;;;;;;;10.13;5.45;;;17.40;42.10;;;;;;5035368;28;20039;-67
2022/01/15 06:23:21;;;;;;;10.63;5.63;;;17.40;42.10;;;;;;5072848;28;20020;-71
2022/01/15 06:25:47;;;;;;;8.27;4.78;;;17.40;42.10;;;;;;5073318;28;20373;-72
2022/01/15 06:28:13;;;;;;;9.23;5.47;;;17.30;42.10;;;;;;5072606;28;20040;-71
2022/01/15 06:30:39;;;;;;;8.73;5.60;;;17.30;42.10;;;;;;5072608;28;20041;-71
2022/01/15 06:33:04;;;;;;;9.75;5.65;;;17.30;42.20;;;;;;5071336;28;20446;-67
2022/01/15 06:35:30;;;;;;;9.35;5.65;;;17.30;42.10;;;;;;5071378;28;20083;-68
2022/01/15 06:37:55;;;;;;;8.48;5.03;;;17.30;42.20;;;;;;5062552;28;20056;-68
2022/01/15 06:40:21;;;;;;;9.07;5.38;;;17.30;42.20;;;;;;5066425;28;20082;-67
2022/01/15 06:42:47;;;;;;;8.48;4.72;;;17.30;42.20;;;;;;5058134;28;20029;-68
2022/01/15 06:45:12;;;;;;;9.80;5.00;;;17.30;42.20;;;;;;5072115;28;20091;-67
2022/01/15 06:47:38;;;;;;;10.07;5.30;;;17.30;42.20;;;;;;5066369;28;20371;-68
2022/01/15 06:50:05;;;;;;;10.02;5.30;;;17.30;42.20;;;;;;5067835;28;20068;-67
2022/01/15 06:52:36;;;;;;;8.82;5.25;;;17.30;42.20;;;;;;5056006;28;20070;-67
2022/01/15 06:55:06;;;;;;;9.60;4.85;;;17.30;42.20;;;;;;5069684;28;20064;-67
2022/01/15 06:57:32;;;;;;;9.35;5.25;;;17.20;42.20;;;;;;5060837;28;20021;-67
2022/01/15 06:59:58;;;;;;;9.27;4.90;;;17.20;42.20;;;;;;5069222;28;20029;-72
2022/01/15 07:02:24;;;;;;;8.90;5.15;;;17.20;42.20;;;;;;5071032;28;20032;-71
2022/01/15 07:04:49;;;;;;;8.00;4.57;;;17.20;42.20;;;;;;5072303;28;20032;-71
2022/01/15 07:07:15;;;;;;;10.32;5.30;;;17.20;42.20;;;;;;5071966;28;20033;-67
2022/01/15 07:09:41;;;;;;;10.00;5.50;;;17.20;42.20;;;;;;5041251;28;20085;-68
2022/01/15 07:12:07;;;;;;;9.25;5.03;;;17.10;42.20;;;;;;5071360;28;20025;-67
2022/01/15 07:14:33;;;;;;;8.63;5.10;;;17.20;42.30;;;;;;5071848;28;20033;-67
2022/01/15 07:16:58;;;;;;;9.38;5.18;;;17.10;42.20;;;;;;5069886;28;20039;-67
2022/01/15 07:19:24;;;;;;;8.43;4.72;;;17.10;42.20;;;;;;5048269;28;20030;-67
2022/01/15 07:21:50;;;;;;;9.90;5.47;;;17.10;42.20;;;;;;5062804;28;20479;-68
2022/01/15 07:24:16;;;;;;;10.57;4.88;;;17.10;42.20;;;;;;5072724;28;20099;-71
2022/01/15 07:26:42;;;;;;;9.82;5.15;;;17.10;42.30;;;;;;5054142;28;20033;-71
2022/01/15 07:29:14;;;;;;;15.57;7.40;;;17.10;42.30;;;;;;5066741;28;20058;-73
2022/01/15 07:31:40;;;;;;;30.35;14.27;;;17.10;42.00;;;;;;5052639;28;20021;-74
2022/01/15 07:34:06;;;;;;;22.88;12.25;;;16.80;41.90;;;;;;5067287;28;20045;-74
2022/01/15 07:36:32;;;;;;;20.13;10.13;;;16.40;42.30;;;;;;5046117;28;20454;-74
2022/01/15 07:38:58;;;;;;;17.85;8.98;;;16.00;43.00;;;;;;5049146;28;20033;-72
2022/01/15 07:41:24;;;;;;;18.90;9.43;;;15.80;43.70;;;;;;5071793;28;20032;-75
2022/01/15 07:43:49;;;;;;;17.00;8.48;;;15.70;44.40;;;;;;5052571;28;20082;-74
2022/01/15 07:46:15;;;;;;;16.70;7.57;;;15.60;44.60;;;;;;5052958;28;20084;-74
2022/01/15 07:48:41;;;;;;;16.67;8.05;;;15.70;44.90;;;;;;5071742;28;20029;-75
2022/01/15 07:51:07;;;;;;;11.77;6.47;;;15.70;45.10;;;;;;5073793;28;20040;-75
2022/01/15 07:53:33;;;;;;;13.45;6.93;;;15.80;44.90;;;;;;5076107;28;20488;-73
2022/01/15 07:55:58;;;;;;;12.57;7.10;;;15.90;44.80;;;;;;5069869;28;20090;-73
2022/01/15 07:58:24;;;;;;;14.73;6.93;;;15.90;44.80;;;;;;5070687;28;20059;-73
2022/01/15 08:00:49;;;;;;;14.95;7.60;;;15.90;44.70;;;;;;5037281;28;20476;-74
2022/01/15 08:03:15;;;;;;;11.32;6.30;;;15.90;44.60;;;;;;5074521;28;20087;-71
2022/01/15 08:05:41;;;;;;;14.55;6.68;;;15.90;44.90;;;;;;5075796;28;20385;-70
2022/01/15 08:08:06;;;;;;;10.20;5.82;;;15.90;44.80;;;;;;5057073;28;20342;-70
2022/01/15 08:10:32;;;;;;;15.75;7.63;;;15.90;45.00;;;;;;5055910;28;20056;-70
2022/01/15 08:12:58;;;;;;;13.18;6.47;;;16.00;45.00;;;;;;5071301;28;20067;-70
2022/01/15 08:15:25;;;;;;;15.38;7.63;;;16.10;44.80;;;;;;5063969;28;20113;-70
2022/01/15 08:17:51;;;;;;;13.63;6.68;;;16.20;44.30;;;;;;5055522;28;20416;-69
2022/01/15 08:20:17;;;;;;;11.65;5.65;;;16.10;44.20;;;;;;5055495;28;20060;-70
2022/01/15 08:22:45;;;;;;;10.77;5.57;;;16.30;45.10;;;;;;5061549;28;20027;-71
2022/01/15 08:25:12;;;;;;;10.35;5.78;;;16.60;45.10;;;;;;5057698;28;20028;-70
2022/01/15 08:27:38;;;;;;;8.57;5.03;;;16.90;44.70;;;;;;5075461;28;20108;-70
2022/01/15 08:30:05;;;;;;;10.23;5.05;;;17.20;44.30;;;;;;5040621;28;20175;-70
2022/01/15 08:32:31;;;;;;;10.27;4.90;;;17.40;43.80;;;;;;5069890;28;20049;-70
2022/01/15 08:34:56;;;;;;;8.40;4.43;;;17.60;43.40;;;;;;5055069;28;20051;-70
2022/01/15 08:37:22;;;;;;;7.00;4.72;;;17.80;43.20;;;;;;5055644;28;20084;-70
2022/01/15 08:39:48;;;;;;;10.13;5.20;;;17.90;42.80;;;;;;5059303;28;20479;-70
2022/01/15 08:42:13;;;;;;;8.77;5.18;;;18.00;42.40;;;;;;5055176;28;20029;-69
2022/01/15 08:44:42;;;;;;;9.52;4.90;;;18.20;42.30;;;;;;5054865;28;20029;-69
2022/01/15 08:47:08;;;;;;;7.72;4.40;;;18.30;42.10;;;;;;5037715;28;20029;-71
2022/01/15 08:49:35;;;;;;;9.18;5.15;;;18.40;41.90;;;;;;5039520;28;20120;-73
2022/01/15 08:52:01;;;;;;;9.90;4.60;;;18.50;41.80;;;;;;5054952;28;20549;-74
2022/01/15 08:54:26;;;;;;;10.93;5.07;;;18.60;41.60;;;;;;5070864;28;20040;-73
2022/01/15 08:56:52;;;;;;;8.20;4.82;;;18.70;41.60;;;;;;5056619;28;20032;-72
2022/01/15 08:59:18;;;;;;;9.73;4.45;;;18.80;41.60;;;;;;5056896;28;20029;-72
2022/01/15 09:01:44;;;;;;;9.57;4.63;;;18.80;41.50;;;;;;5075375;28;20017;-71
2022/01/15 09:04:10;;;;;;;9.82;4.68;;;18.80;41.60;;;;;;5074459;28;20029;-69
2022/01/15 09:06:39;;;;;;;9.52;5.07;;;18.80;41.50;;;;;;5074708;28;20028;-68
2022/01/15 09:09:05;;;;;;;9.50;4.93;;;18.90;41.70;;;;;;5043796;28;20082;-68
2022/01/15 09:11:31;;;;;;;7.90;4.78;;;18.90;41.60;;;;;;5054595;28;20060;-68
2022/01/15 09:13:57;;;;;;;17.40;6.93;;;18.90;41.60;;;;;;5054572;28;20029;-69
2022/01/15 09:16:23;;;;;;;22.55;7.13;;;19.00;41.80;;;;;;5054675;28;20079;-72
2022/01/15 09:18:50;;;;;;;15.68;6.45;;;19.10;42.30;;;;;;5054509;28;20127;-71
2022/01/15 09:21:16;;;;;;;15.77;6.20;;;19.20;42.20;;;;;;5054732;28;20047;-72
2022/01/15 09:23:42;;;;;;;13.93;5.60;;;19.30;41.80;;;;;;5059306;28;20045;-71
2022/01/15 09:26:18;;;;;;;13.90;5.82;;;19.40;41.70;;;;;;5064432;28;20518;-69
2022/01/15 09:31:29;;;;;;;11.75;5.75;;;19.60;41.40;;;;;;5060104;28;20063;-70
2022/01/15 09:33:55;;;;;;;17.42;6.22;;;19.60;41.40;;;;;;5054804;28;20500;-70
2022/01/15 09:36:21;;;;;;;11.63;5.65;;;19.70;41.30;;;;;;5055718;28;20061;-70
2022/01/15 09:38:46;;;;;;;11.02;5.60;;;19.80;41.30;;;;;;5063949;28;20025;-72
2022/01/15 09:41:13;;;;;;;13.93;5.53;;;19.80;41.00;;;;;;5069506;28;20031;-69
2022/01/15 09:43:39;;;;;;;10.65;4.72;;;19.90;40.90;;;;;;5072145;28;20029;-70
2022/01/15 09:46:06;;;;;;;10.88;5.28;;;20.00;40.80;;;;;;5062328;28;20025;-68
2022/01/15 09:48:33;;;;;;;11.30;5.85;;;20.00;40.70;;;;;;5054659;28;20025;-69
2022/01/15 09:50:58;;;;;;;11.95;5.68;;;20.10;40.60;;;;;;5063741;28;20035;-71
2022/01/15 09:53:24;;;;;;;11.20;5.80;;;20.20;40.60;;;;;;5073406;28;20040;-69
2022/01/15 09:55:52;;;;;;;11.38;5.78;;;20.20;40.20;;;;;;5070776;28;20468;-70
2022/01/15 09:58:18;;;;;;;10.73;5.53;;;20.30;40.00;;;;;;5065961;28;20025;-70
2022/01/15 10:00:44;;;;;;;11.85;5.63;;;20.40;39.90;;;;;;5062321;28;20032;-70
2022/01/15 10:03:10;;;;;;;11.00;5.40;;;20.40;39.80;;;;;;5055763;28;20021;-70
2022/01/15 10:05:36;;;;;;;10.13;5.20;;;20.40;39.90;;;;;;5053062;28;20048;-70
2022/01/15 10:08:09;;;;;;;10.95;5.65;;;20.40;39.90;;;;;;5053790;28;20029;-69
2022/01/15 10:10:36;;;;;;;10.65;5.45;;;20.40;39.70;;;;;;5053581;28;20044;-70
2022/01/15 10:13:11;;;;;;;11.13;5.53;;;20.30;39.70;;;;;;5058617;28;20029;-70
2022/01/15 10:15:36;;;;;;;9.13;5.80;;;20.30;39.70;;;;;;5053154;28;20029;-70
2022/01/15 10:18:17;;;;;;;9.88;5.53;;;20.30;39.70;;;;;;5053608;28;20469;-70
2022/01/15 10:20:43;;;;;;;11.25;5.45;;;20.20;39.50;;;;;;5053027;28;20029;-70
2022/01/15 10:23:15;;;;;;;11.30;5.93;;;20.20;39.80;;;;;;5062272;28;20021;-70
2022/01/15 10:25:41;;;;;;;10.80;5.90;;;20.20;39.80;;;;;;5070062;28;20032;-69
2022/01/15 10:28:08;;;;;;;10.07;5.78;;;20.20;39.80;;;;;;5059049;28;20102;-69
2022/01/15 10:30:34;;;;;;;12.30;5.95;;;20.10;39.80;;;;;;5061448;28;20065;-70
2022/01/15 10:33:04;;;;;;;10.80;6.35;;;20.10;39.70;;;;;;5063151;28;20149;-70
2022/01/15 10:35:32;;;;;;;11.63;6.20;;;20.10;39.70;;;;;;5053647;28;20548;-70
2022/01/15 10:38:04;;;;;;;10.70;6.03;;;20.10;39.70;;;;;;5053772;28;20354;-70
2022/01/15 10:40:50;;;;;;;11.25;5.65;;;20.10;39.70;;;;;;5070609;28;20437;-68
2022/01/15 10:43:18;;;;;;;14.20;7.47;;;20.10;39.70;;;;;;5071325;28;20027;-68
2022/01/15 10:45:55;;;;;;;11.90;6.60;;;20.00;39.80;;;;;;5053369;28;20450;-68
2022/01/15 10:48:22;;;;;;;13.65;6.63;;;20.00;39.60;;;;;;5054947;28;20478;-69
2022/01/15 10:50:57;;;;;;;11.50;6.75;;;19.90;39.90;;;;;;5072912;28;20032;-68
2022/01/15 10:53:33;;;;;;;13.20;6.32;;;19.90;39.80;;;;;;5073069;28;20059;-68
2022/01/15 10:56:00;;;;;;;10.07;6.22;;;19.90;39.80;;;;;;5073313;28;20032;-68
2022/01/15 10:58:25;;;;;;;17.75;6.57;;;19.80;40.00;;;;;;5054593;28;20031;-68
2022/01/15 11:00:52;;;;;;;13.50;6.10;;;19.80;40.00;;;;;;5056112;28;20033;-69
2022/01/15 11:03:19;;;;;;;11.88;6.57;;;19.80;40.00;;;;;;5057902;28;20025;-70
2022/01/15 11:05:47;;;;;;;9.80;6.13;;;19.80;40.00;;;;;;5056938;28;20032;-69
2022/01/15 11:08:26;;;;;;;10.40;6.15;;;19.80;40.00;;;;;;5058201;28;20174;-67
2022/01/15 11:10:59;;;;;;;11.85;6.25;;;19.90;40.00;;;;;;5058769;28;20029;-65
2022/01/15 11:13:28;;;;;;;11.20;6.05;;;19.90;39.90;;;;;;5052865;28;20108;-66
2022/01/15 11:16:00;;;;;;;11.50;6.35;;;20.00;40.20;;;;;;5055035;28;20021;-66
2022/01/15 11:18:30;;;;;;;;;;;20.10;40.60;;;;;;5067359;28;20024;-66
2022/01/15 11:20:58;;;;;;;9.57;5.63;;;20.10;40.60;;;;;;5057956;28;19908;-66
2022/01/15 11:23:26;;;;;;;10.77;6.47;;;20.10;40.70;;;;;;5069187;28;20020;-66
2022/01/15 11:25:54;;;;;;;11.40;5.90;;;20.10;40.60;;;;;;5077957;28;20035;-66
2022/01/15 11:28:22;;;;;;;11.88;6.05;;;20.20;40.50;;;;;;5078406;28;20464;-66
2022/01/15 11:30:52;;;;;;;13.57;6.55;;;20.20;40.40;;;;;;5077102;28;20549;-66
2022/01/15 11:33:24;;;;;;;9.85;5.90;;;20.30;40.30;;;;;;5075616;28;20041;-68
2022/01/15 11:35:51;;;;;;;10.50;5.97;;;20.40;40.10;;;;;;5077604;28;20035;-68
2022/01/15 11:38:39;;;;;;;10.85;5.90;;;20.40;39.90;;;;;;5075997;28;20040;-67
2022/01/15 11:41:05;;;;;;;12.30;5.95;;;20.50;39.60;;;;;;5076502;28;20357;-67
2022/01/15 11:43:37;;;;;;;10.27;5.93;;;20.60;39.60;;;;;;5059611;28;20032;-67
2022/01/15 11:46:05;;;;;;;10.07;6.35;;;20.60;39.60;;;;;;5058064;28;20025;-67
2022/01/15 11:48:36;;;;;;;8.98;5.90;;;20.60;39.50;;;;;;5050549;28;20051;-66
2022/01/15 11:51:24;;;;;;;9.57;5.55;;;20.70;39.40;;;;;;5065657;28;20488;-68
2022/01/15 11:54:00;;;;;;;9.77;5.97;;;20.70;39.20;;;;;;5050615;28;20495;-68
2022/01/15 11:56:37;;;;;;;8.50;5.38;;;20.80;39.30;;;;;;5061738;28;20495;-68
2022/01/15 11:59:25;;;;;;;9.88;5.53;;;20.80;39.00;;;;;;5058384;28;20024;-66
2022/01/15 12:01:59;;;;;;;9.00;5.65;;;20.90;39.30;;;;;;5071457;28;20075;-68
2022/01/15 12:04:35;;;;;;;10.82;6.13;;;20.90;39.10;;;;;;5067318;28;20451;-66
2022/01/15 12:07:01;;;;;;;11.05;5.60;;;20.90;39.20;;;;;;5068273;28;20384;-68
2022/01/15 12:09:47;;;;;;;11.82;6.25;;;20.90;39.00;;;;;;5076732;28;20024;-67
2022/01/15 12:12:19;;;;;;;10.30;5.82;;;21.00;38.70;;;;;;5077684;28;20020;-69
2022/01/15 12:14:50;;;;;;;10.75;5.90;;;21.00;39.00;;;;;;5076466;28;20021;-68
2022/01/15 12:17:42;;;;;;;10.52;6.47;;;21.00;39.10;;;;;;5075162;28;20048;-67
2022/01/15 12:20:17;;;;;;;8.88;5.60;;;21.00;39.20;;;;;;5073891;28;20464;-67
2022/01/15 12:22:51;;;;;;;14.52;6.60;;;21.00;39.40;;;;;;5067368;28;20028;-71
2022/01/15 12:25:16;;;;;;;12.23;6.22;;;21.00;39.40;;;;;;5060982;28;20502;-68
2022/01/15 12:27:48;;;;;;;12.32;6.68;;;21.00;39.40;;;;;;5053545;28;20063;-68
2022/01/15 12:30:19;;;;;;;11.35;7.18;;;21.00;39.40;;;;;;5067270;28;20102;-65
2022/01/15 12:32:47;;;;;;;10.48;6.18;;;21.00;39.40;;;;;;5063731;28;20049;-65
2022/01/15 12:35:25;;;;;;;10.77;6.18;;;21.00;39.50;;;;;;5061882;28;20021;-65
2022/01/15 12:37:52;;;;;;;9.00;6.00;;;21.10;39.70;;;;;;5063069;28;20033;-65
2022/01/15 12:40:20;;;;;;;21.00;6.85;;;21.00;39.60;;;;;;5065630;28;20037;-66
2022/01/15 12:42:57;;;;;;;10.77;6.50;;;21.00;39.50;;;;;;5053044;28;20119;-67
2022/01/15 12:45:23;;;;;;;14.05;7.05;;;21.00;39.40;;;;;;5055622;28;20024;-65
2022/01/15 12:47:49;;;;;;;14.25;6.50;;;21.10;39.50;;;;;;5060548;28;20123;-68
2022/01/15 12:50:15;;;;;;;11.40;6.82;;;21.10;39.50;;;;;;5068139;28;20473;-67
2022/01/15 12:52:40;;;;;;;9.95;6.78;;;21.10;39.50;;;;;;5053072;28;20155;-67
2022/01/15 12:55:07;;;;;;;10.32;7.13;;;21.10;39.70;;;;;;5042611;28;20080;-68
2022/01/15 12:57:52;;;;;;;13.20;8.40;;;21.10;40.80;;;;;;5053086;28;20024;-68
2022/01/15 13:00:22;;;;;;;12.77;7.60;;;21.10;39.80;;;;;;5054067;28;20033;-68
2022/01/15 13:02:54;;;;;;;11.73;6.90;;;21.10;39.80;;;;;;5054531;28;20110;-68